Time;durP1;ratioP1;P1;durP2;ratioP2;P2;SDS_P1;SDS_P2;PMS_P1;PMS_P2;Temp;Humidity;BMP_temperature;BMP_pressure;BME280_temperature;BME280_humidity;BME280_pressure;Samples;Min_cycle;Max_cycle;Signal;HPM_P1;HPM_P2
2022/05/02 00:01:57;;;;;;;10.97;10.27;;;;;;;11.25;68.93;92898.16;5053869;28;20235;-89
2022/05/02 00:04:22;;;;;;;10.27;9.77;;;;;;;11.37;67.84;92905.66;5035826;28;20205;-88
2022/05/02 00:06:48;;;;;;;12.83;11.87;;;;;;;11.29;68.47;92901.81;5041192;28;20234;-90
2022/05/02 00:09:13;;;;;;;11.33;10.63;;;;;;;11.28;67.94;92886.41;5060477;28;20227;-84
2022/05/02 00:11:38;;;;;;;11.83;10.90;;;;;;;11.36;67.16;92898.88;5061278;28;20257;-90
2022/05/02 00:14:04;;;;;;;11.73;11.03;;;;;;;11.34;66.98;92899.16;5071377;28;20219;-91
2022/05/02 00:16:29;;;;;;;11.10;10.43;;;;;;;11.40;66.55;92889.41;5084880;28;20247;-89
2022/05/02 00:18:55;;;;;;;11.07;10.37;;;;;;;11.23;66.61;92879.38;5074820;28;20223;-90
2022/05/02 00:21:20;;;;;;;11.97;11.27;;;;;;;11.40;66.42;92894.66;5071097;28;20221;-90
2022/05/02 00:23:45;;;;;;;12.77;11.97;;;;;;;11.20;66.37;92861.66;5069851;28;20191;-90
2022/05/02 00:26:11;;;;;;;12.70;11.80;;;;;;;11.41;66.36;92884.97;5065740;28;20237;-85
2022/05/02 00:28:36;;;;;;;11.73;11.03;;;;;;;11.41;66.01;92892.81;5043133;28;20211;-90
2022/05/02 00:31:03;;;;;;;11.73;11.03;;;;;;;11.50;65.63;92878.09;5040485;28;20231;-89
2022/05/02 00:33:29;;;;;;;10.97;10.27;;;;;;;11.49;65.13;92873.94;5069673;28;20226;-89
2022/05/02 00:35:54;;;;;;;11.27;10.63;;;;;;;11.33;65.59;92887.13;5073349;28;20231;-91
2022/05/02 00:38:20;;;;;;;11.37;10.67;;;;;;;11.36;65.07;92870.13;5074044;28;20444;-88
2022/05/02 00:40:46;;;;;;;11.77;11.07;;;;;;;11.41;63.88;92870.06;5070865;28;20182;-85
2022/05/02 00:43:12;;;;;;;12.50;11.70;;;;;;;11.41;64.13;92880.50;5070526;28;20197;-85
2022/05/02 00:45:38;;;;;;;11.30;10.70;;;;;;;11.47;63.47;92878.66;5069598;28;20227;-90
2022/05/02 00:48:04;;;;;;;12.60;11.70;;;;;;;11.40;63.67;92863.28;5041738;28;20195;-90
2022/05/02 00:50:32;;;;;;;11.10;10.40;;;;;;;11.49;63.65;92872.06;5045721;28;20200;-90
2022/05/02 00:52:58;;;;;;;12.13;11.30;;;;;;;11.58;62.85;92874.88;5049570;28;20244;-88
2022/05/02 00:55:24;;;;;;;11.47;10.63;;;;;;;11.47;63.01;92847.28;5038528;28;20183;-89
2022/05/02 00:57:50;;;;;;;12.27;11.47;;;;;;;11.45;63.01;92854.59;5054739;28;20233;-90
2022/05/02 01:00:16;;;;;;;11.47;10.77;;;;;;;11.47;63.40;92855.88;5053552;28;20228;-90
2022/05/02 01:02:41;;;;;;;12.83;11.93;;;;;;;11.51;63.24;92853.50;5056975;28;20225;-90
2022/05/02 01:05:07;;;;;;;11.40;10.70;;;;;;;11.52;63.50;92855.06;5039586;28;20191;-85
2022/05/02 01:07:32;;;;;;;10.97;10.07;;;;;;;11.48;63.64;92862.69;5054019;28;20222;-89
2022/05/02 01:09:58;;;;;;;11.47;10.80;;;;;;;11.27;64.59;92849.03;5054988;28;20277;-84
2022/05/02 01:12:25;;;;;;;10.80;10.17;;;;;;;11.25;64.64;92853.75;5062202;28;20233;-90
2022/05/02 01:14:56;;;;;;;11.50;10.70;;;;;;;11.44;63.93;92856.44;5066438;28;20197;-90
2022/05/02 01:17:22;;;;;;;11.47;10.87;;;;;;;11.29;64.38;92846.94;5074619;28;20229;-91
2022/05/02 01:19:48;;;;;;;11.13;10.33;;;;;;;11.29;64.87;92853.97;5070138;28;20215;-87
2022/05/02 01:22:14;;;;;;;10.90;10.20;;;;;;;11.39;64.60;92846.06;5071137;28;20228;-90
2022/05/02 01:24:45;;;;;;;12.37;11.57;;;;;;;11.30;65.01;92834.63;5057652;28;20193;-89
2022/05/02 01:27:11;;;;;;;10.87;10.27;;;;;;;11.24;65.49;92844.34;5070142;28;20227;-88
2022/05/02 01:29:40;;;;;;;11.33;10.63;;;;;;;11.34;65.86;92848.72;5065140;28;20217;-88
2022/05/02 01:32:08;;;;;;;12.00;11.30;;;;;;;11.22;65.68;92846.47;5073197;28;20271;-90
2022/05/02 01:34:34;;;;;;;11.40;10.80;;;;;;;11.17;65.48;92843.88;5066696;28;20192;-88
2022/05/02 01:37:01;;;;;;;11.60;10.80;;;;;;;11.08;65.97;92844.78;5070161;28;20228;-88
2022/05/02 01:39:26;;;;;;;11.77;11.03;;;;;;;11.08;66.16;92839.56;5071795;28;20189;-88
2022/05/02 01:41:52;;;;;;;10.50;9.80;;;;;;;10.84;66.23;92779.44;5067649;28;20223;-88
2022/05/02 01:44:17;;;;;;;11.63;10.83;;;;;;;11.10;66.07;92817.31;5068260;28;20205;-89
2022/05/02 01:46:43;;;;;;;11.87;11.07;;;;;;;11.19;65.95;92831.34;5072810;28;20285;-88
2022/05/02 01:49:09;;;;;;;10.77;10.17;;;;;;;11.11;66.75;92828.56;5072879;28;20695;-84
2022/05/02 01:51:34;;;;;;;11.83;10.97;;;;;;;11.06;67.11;92825.97;5077097;28;20232;-90
2022/05/02 01:54:00;;;;;;;11.13;10.33;;;;;;;10.94;67.81;92823.72;5067010;28;20228;-88
2022/05/02 01:56:25;;;;;;;11.73;10.90;;;;;;;10.74;68.25;92808.22;5073650;28;20233;-84
2022/05/02 01:58:50;;;;;;;11.10;10.30;;;;;;;10.89;68.58;92826.41;5084099;28;20173;-87
2022/05/02 02:01:16;;;;;;;11.57;10.77;;;;;;;10.77;69.09;92823.34;5075947;28;20288;-89
2022/05/02 02:03:41;;;;;;;12.67;11.77;;;;;;;10.74;68.63;92808.22;5084036;28;20226;-89
2022/05/02 02:06:07;;;;;;;11.47;10.67;;;;;;;10.78;68.81;92805.84;5073370;28;20711;-84
2022/05/02 02:08:35;;;;;;;11.93;11.23;;;;;;;10.76;69.13;92800.91;5074168;28;20277;-89
2022/05/02 02:11:03;;;;;;;12.83;12.03;;;;;;;10.70;69.30;92786.34;5063464;28;20232;-84
2022/05/02 02:13:29;;;;;;;12.17;11.37;;;;;;;10.76;69.11;92800.91;5072593;28;20194;-86
2022/05/02 02:15:55;;;;;;;12.03;11.23;;;;;;;10.59;69.66;92784.88;5072808;28;20245;-90
2022/05/02 02:18:20;;;;;;;12.30;11.40;;;;;;;10.71;69.62;92789.72;5076978;28;20199;-87
2022/05/02 02:20:47;;;;;;;12.50;11.60;;;;;;;10.75;69.06;92786.31;5073974;28;20189;-89
2022/05/02 02:23:14;;;;;;;12.33;11.43;;;;;;;10.69;68.86;92782.16;5065293;28;20186;-90
2022/05/02 02:25:40;;;;;;;12.57;11.60;;;;;;;10.74;68.96;92787.34;5073118;28;20190;-88
2022/05/02 02:28:06;;;;;;;12.20;11.20;;;;;;;10.62;69.18;92763.44;5069398;28;20182;-90
2022/05/02 02:30:31;;;;;;;11.83;10.93;;;;;;;10.67;69.79;92786.91;5075370;28;20189;-84
2022/05/02 02:32:58;;;;;;;12.33;11.53;;;;;;;10.74;69.89;92773.53;5076000;28;20233;-89
2022/05/02 02:35:24;;;;;;;12.00;11.20;;;;;;;10.69;69.70;92763.88;5076757;28;20194;-89
2022/05/02 02:37:50;;;;;;;12.37;11.37;;;;;;;10.68;69.49;92761.53;5071514;28;20244;-85
2022/05/02 02:40:17;;;;;;;12.27;11.33;;;;;;;10.59;70.13;92756.16;5062340;28;20257;-88
2022/05/02 02:42:42;;;;;;;13.70;12.70;;;;;;;10.59;70.15;92753.53;5075385;28;20236;-88
2022/05/02 02:45:08;;;;;;;13.40;12.50;;;;;;;10.56;70.26;92758.53;5065396;28;20193;-89
2022/05/02 02:47:34;;;;;;;13.63;12.63;;;;;;;10.43;70.59;92759.19;5059691;28;20249;-89
2022/05/02 02:49:59;;;;;;;14.27;13.17;;;;;;;10.37;71.14;92762.84;5060903;28;20210;-84
2022/05/02 02:52:25;;;;;;;13.73;12.73;;;;;;;10.38;71.08;92764.44;5052427;28;20289;-88
2022/05/02 02:54:50;;;;;;;13.33;12.40;;;;;;;10.44;70.79;92755.50;5056036;28;20220;-89
2022/05/02 02:57:16;;;;;;;14.63;13.53;;;;;;;10.44;70.64;92760.72;5061136;28;20233;-89
2022/05/02 02:59:42;;;;;;;13.20;12.23;;;;;;;10.21;71.27;92746.53;5062200;28;20227;-88
2022/05/02 03:02:08;;;;;;;13.03;12.07;;;;;;;10.25;71.00;92734.50;5063089;28;20237;-89
2022/05/02 03:07:19;;;;;;;13.23;12.13;;;;;;;10.02;72.02;92756.06;5060846;28;20236;-90
2022/05/02 03:09:45;;;;;;;13.17;12.17;;;;;;;9.91;72.28;92735.50;5069522;28;20214;-88
2022/05/02 03:12:11;;;;;;;14.37;13.30;;;;;;;9.91;72.37;92741.50;5041194;28;20250;-91
2022/05/02 03:14:36;;;;;;;12.87;11.97;;;;;;;9.97;72.18;92748.25;5049317;28;20190;-89
2022/05/02 03:17:02;;;;;;;12.73;11.83;;;;;;;9.90;71.47;92739.19;5063929;28;20225;-88
2022/05/02 03:19:27;;;;;;;12.47;11.47;;;;;;;9.93;71.29;92736.78;5072220;28;20182;-89
2022/05/02 03:21:53;;;;;;;13.97;12.87;;;;;;;9.86;71.22;92730.31;5060718;28;20288;-88
2022/05/02 03:24:19;;;;;;;12.77;11.77;;;;;;;9.86;72.04;92757.19;5075432;28;20186;-89
2022/05/02 03:26:44;;;;;;;15.00;13.80;;;;;;;9.83;72.52;92749.91;5060263;28;20245;-89
2022/05/02 03:29:10;;;;;;;13.07;12.17;;;;;;;9.70;73.02;92730.41;5075732;28;20209;-84
2022/05/02 03:31:35;;;;;;;14.70;13.33;;;;;;;9.57;73.69;92719.81;5057414;28;20512;-90
2022/05/02 03:34:00;;;;;;;14.10;12.93;;;;;;;9.78;73.26;92739.50;5075745;28;20216;-89
2022/05/02 03:36:26;;;;;;;12.97;11.90;;;;;;;10.01;70.21;92738.06;5059721;28;20238;-89
2022/05/02 03:38:51;;;;;;;11.57;10.77;;;;;;;9.78;68.14;92710.81;5052053;28;20197;-89
2022/05/02 03:41:17;;;;;;;12.23;11.30;;;;;;;10.17;67.31;92742.91;5055025;28;20235;-90
2022/05/02 03:43:42;;;;;;;11.37;10.57;;;;;;;10.29;67.19;92735.50;5068870;28;20177;-84
2022/05/02 03:46:08;;;;;;;11.07;10.37;;;;;;;10.62;66.41;92741.75;5071120;28;20253;-89
2022/05/02 03:48:34;;;;;;;10.30;9.70;;;;;;;10.60;66.42;92747.25;5071978;28;20220;-90
2022/05/02 03:50:59;;;;;;;12.67;11.70;;;;;;;10.69;66.78;92743.00;5072008;28;20232;-89
2022/05/02 03:53:25;;;;;;;10.83;10.17;;;;;;;10.78;65.41;92730.13;5071873;28;20256;-88
2022/05/02 03:55:50;;;;;;;9.80;9.30;;;;;;;11.06;64.46;92753.63;5072856;28;20193;-89
2022/05/02 03:58:16;;;;;;;10.97;10.27;;;;;;;11.23;63.69;92756.56;5064388;28;20277;-89
2022/05/02 04:00:41;;;;;;;9.53;9.03;;;;;;;11.14;64.04;92742.53;5073925;28;20218;-88
2022/05/02 04:03:07;;;;;;;11.17;10.53;;;;;;;11.25;63.31;92730.91;5074375;28;20203;-89
2022/05/02 04:05:32;;;;;;;10.07;9.57;;;;;;;11.48;63.24;92754.69;5070172;28;20205;-90
2022/05/02 04:07:58;;;;;;;10.80;10.10;;;;;;;11.52;63.51;92747.88;5059514;28;20352;-90
2022/05/02 04:10:23;;;;;;;10.97;10.27;;;;;;;11.54;63.11;92746.53;5074492;28;20212;-90
2022/05/02 04:12:49;;;;;;;10.40;9.80;;;;;;;11.58;63.15;92742.28;5073983;28;20270;-83
2022/05/02 04:15:14;;;;;;;10.80;9.80;;;;;;;11.69;63.80;92761.28;5064847;28;20193;-86
2022/05/02 04:17:41;;;;;;;11.20;10.50;;;;;;;11.72;63.36;92760.72;5070471;28;20240;-90
2022/05/02 04:20:07;;;;;;;10.90;10.20;;;;;;;11.70;62.82;92747.13;5069165;28;20193;-89
2022/05/02 04:22:34;;;;;;;10.63;9.93;;;;;;;11.89;62.71;92756.53;5054048;28;20237;-90
2022/05/02 04:25:00;;;;;;;11.00;10.40;;;;;;;11.99;62.06;92766.88;5050775;28;20183;-86
2022/05/02 04:27:25;;;;;;;11.63;10.93;;;;;;;12.02;62.00;92760.31;5066018;28;20236;-89
2022/05/02 04:29:51;;;;;;;10.10;9.50;;;;;;;12.30;61.14;92756.75;5072409;28;20213;-90
2022/05/02 04:32:16;;;;;;;9.90;9.30;;;;;;;12.42;60.52;92755.25;5060776;28;21053;-88
2022/05/02 04:34:41;;;;;;;9.87;9.27;;;;;;;12.03;62.86;92759.25;5067201;28;20196;-89
2022/05/02 04:37:07;;;;;;;11.17;10.47;;;;;;;12.48;60.62;92761.19;5081295;28;20237;-88
2022/05/02 04:39:33;;;;;;;11.27;10.63;;;;;;;12.43;60.34;92753.41;5071232;28;20204;-89
2022/05/02 04:41:58;;;;;;;11.80;11.00;;;;;;;12.77;59.15;92764.38;5069765;28;20254;-84
2022/05/02 04:44:24;;;;;;;10.70;10.03;;;;;;;12.80;59.01;92754.13;5074162;28;20202;-90
2022/05/02 04:46:49;;;;;;;10.63;9.93;;;;;;;12.81;59.54;92747.00;5070275;28;20227;-88
2022/05/02 04:49:15;;;;;;;10.20;9.70;;;;;;;13.15;58.03;92752.75;5059956;28;20291;-84
2022/05/02 04:51:40;;;;;;;9.93;9.33;;;;;;;12.76;59.19;92766.22;5059296;28;20231;-87
2022/05/02 04:54:06;;;;;;;11.30;10.50;;;;;;;12.95;58.13;92721.59;5051609;28;20271;-91
2022/05/02 04:56:31;;;;;;;9.50;8.90;;;;;;;13.45;57.38;92762.66;5051043;28;20230;-89
2022/05/02 04:58:57;;;;;;;10.73;9.93;;;;;;;13.71;55.49;92766.31;5051628;28;20178;-91
2022/05/02 05:01:22;;;;;;;9.97;9.27;;;;;;;13.99;54.88;92773.09;5049306;28;20234;-90
2022/05/02 05:03:47;;;;;;;10.97;10.30;;;;;;;13.91;55.86;92770.41;5048591;28;20198;-89
2022/05/02 05:06:13;;;;;;;10.07;9.47;;;;;;;13.99;54.92;92767.09;5049165;28;20234;-89
2022/05/02 05:08:42;;;;;;;10.13;9.43;;;;;;;13.89;54.51;92767.28;5052263;28;20225;-88
2022/05/02 05:11:32;;;;;;;10.87;9.97;;;;;;;13.98;54.57;92765.50;5045338;28;20316;-90
2022/05/02 05:17:20;;;;;;;10.87;10.17;;;;;;;14.03;54.56;92760.94;5053462;28;20244;-87
2022/05/02 05:20:05;;;;;;;10.70;10.00;;;;;;;14.10;54.27;92758.69;5050436;28;20201;-88
2022/05/02 05:22:30;;;;;;;11.13;10.33;;;;;;;14.41;53.44;92753.56;5047384;28;20234;-90
2022/05/02 05:25:05;;;;;;;11.27;10.57;;;;;;;14.33;54.04;92736.66;5049486;28;20196;-89
2022/05/02 05:28:16;;;;;;;11.27;10.57;;;;;;;14.62;53.83;92744.13;5066523;28;20230;-88
2022/05/02 05:30:48;;;;;;;9.50;8.90;;;;;;;17.09;46.80;92751.84;5031135;28;20209;-89
2022/05/02 05:33:16;;;;;;;11.37;10.67;;;;;;;19.71;41.07;92757.47;5070408;28;20293;-90
2022/05/02 05:35:45;;;;;;;11.07;10.37;;;;;;;20.86;37.56;92756.00;5071104;28;20210;-90
2022/05/02 05:38:17;;;;;;;10.27;9.63;;;;;;;22.93;34.18;92772.47;5068770;28;20207;-90
2022/05/02 05:40:43;;;;;;;10.13;9.40;;;;;;;23.34;33.03;92763.78;5069763;28;20189;-90
2022/05/02 05:43:25;;;;;;;11.97;9.83;;;;;;;25.21;29.73;92770.84;5069435;28;20252;-87
2022/05/02 05:46:09;;;;;;;10.05;9.27;;;;;;;26.91;27.38;92775.81;5067394;28;20184;-86
2022/05/02 05:48:56;;;;;;;9.05;8.43;;;;;;;27.75;25.79;92776.88;5053102;28;20211;-89
2022/05/02 05:51:22;;;;;;;9.73;8.95;;;;;;;27.95;25.93;92777.34;5069609;28;20245;-90
2022/05/02 05:54:12;;;;;;;9.82;9.07;;;;;;;27.67;25.74;92769.22;5065455;28;20196;-89
2022/05/02 05:56:53;;;;;;;10.38;9.57;;;;;;;26.15;27.11;92775.66;5049892;28;20243;-87
2022/05/02 05:59:32;;;;;;;9.95;9.25;;;;;;;26.43;27.10;92775.88;5046054;28;20205;-88
2022/05/02 06:02:17;;;;;;;11.88;10.88;;;;;;;25.83;27.96;92763.88;5041709;28;20263;-88
2022/05/02 06:04:43;;;;;;;11.82;10.93;;;;;;;24.91;29.32;92753.31;5046987;28;20208;-85
2022/05/02 06:07:11;;;;;;;11.82;10.63;;;;;;;25.00;28.88;92759.13;5050181;28;20219;-90
2022/05/02 06:09:38;;;;;;;11.32;10.40;;;;;;;26.47;27.60;92768.63;5047197;28;20207;-87
2022/05/02 06:12:06;;;;;;;11.23;10.32;;;;;;;26.69;27.31;92775.66;5048581;28;20231;-87
2022/05/02 06:20:11;;;;;;;10.45;9.85;;;;;;;25.05;29.26;92772.19;5049311;28;20230;-89
2022/05/02 06:22:39;;;;;;;10.15;9.45;;;;;;;20.96;35.62;92755.53;5052774;28;20317;-86
2022/05/02 06:25:05;;;;;;;11.40;10.30;;;;;;;18.28;42.13;92756.59;5052780;28;20181;-86
2022/05/02 06:27:33;;;;;;;10.77;10.03;;;;;;;17.13;44.85;92750.91;5052686;28;20258;-89
2022/05/02 06:30:03;;;;;;;11.47;10.70;;;;;;;16.21;48.07;92742.75;5052694;28;20332;-89
2022/05/02 06:32:35;;;;;;;12.13;11.23;;;;;;;15.63;49.91;92748.38;5054764;28;20293;-87
2022/05/02 06:35:01;;;;;;;13.13;11.93;;;;;;;15.58;49.90;92721.44;5065881;28;20193;-86
2022/05/02 06:37:45;;;;;;;12.33;11.53;;;;;;;15.42;50.92;92738.69;5068189;28;20249;-86
2022/05/02 06:40:27;;;;;;;12.57;11.70;;;;;;;15.29;51.44;92736.91;5074562;28;20178;-81
2022/05/02 06:43:11;;;;;;;12.43;11.20;;;;;;;15.24;52.24;92744.94;5071207;28;20225;-86
2022/05/02 06:45:43;;;;;;;11.57;10.77;;;;;;;15.20;51.54;92741.38;5071914;28;20188;-81
2022/05/02 06:48:41;;;;;;;12.80;11.63;;;;;;;15.00;52.80;92737.41;5076470;28;20257;-87
2022/05/02 06:51:14;;;;;;;13.27;12.20;;;;;;;15.05;53.05;92728.63;5072105;28;20251;-88
2022/05/02 06:53:56;;;;;;;13.30;12.17;;;;;;;14.80;52.50;92690.59;5071494;28;20216;-88
2022/05/02 06:56:40;;;;;;;12.30;11.47;;;;;;;15.27;51.18;92733.81;5075239;28;20237;-88
2022/05/02 06:59:35;;;;;;;12.93;12.03;;;;;;;15.19;51.53;92731.94;5074231;28;20204;-88
2022/05/02 07:02:31;;;;;;;14.00;12.80;;;;;;;15.39;50.98;92726.16;5067582;28;20688;-87
2022/05/02 07:04:59;;;;;;;13.00;12.00;;;;;;;15.51;50.01;92726.34;5071619;28;20219;-87
2022/05/02 07:07:42;;;;;;;13.23;12.23;;;;;;;15.54;49.66;92720.47;5075513;28;20222;-85
2022/05/02 07:10:38;;;;;;;22.40;12.83;;;;;;;15.39;50.06;92721.66;5080504;28;20209;-86
2022/05/02 07:13:41;;;;;;;13.63;12.30;;;;;;;15.62;50.78;92731.03;5051407;28;20210;-88
2022/05/02 07:16:17;;;;;;;13.47;12.40;;;;;;;15.91;49.99;92722.56;5061315;28;20228;-86
2022/05/02 07:18:59;;;;;;;12.50;11.57;;;;;;;15.13;50.44;92727.88;5075842;28;20247;-88
2022/05/02 07:21:40;;;;;;;12.13;11.33;;;;;;;14.61;53.02;92728.66;5055105;28;20229;-87
2022/05/02 07:24:11;;;;;;;12.57;11.67;;;;;;;15.27;51.38;92713.53;5055675;28;20182;-87
2022/05/02 07:26:38;;;;;;;11.93;11.17;;;;;;;15.64;49.72;92705.16;5058637;28;20245;-86
2022/05/02 07:29:05;;;;;;;31.30;21.87;;;;;;;15.53;50.44;92717.06;5063405;28;20272;-83
2022/05/02 07:31:31;;;;;;;14.43;13.23;;;;;;;15.31;50.89;92718.97;5052380;28;20237;-87
2022/05/02 07:33:57;;;;;;;16.10;14.70;;;;;;;15.84;48.73;92696.69;5055145;28;20201;-89
2022/05/02 07:36:25;;;;;;;15.03;13.53;;;;;;;16.61;46.82;92707.25;5048237;28;20241;-86
2022/05/02 07:39:02;;;;;;;12.50;11.60;;;;;;;16.69;47.00;92716.22;5048406;28;20273;-86
2022/05/02 07:41:28;;;;;;;14.73;13.63;;;;;;;16.57;47.52;92714.25;5046603;28;20225;-87
2022/05/02 07:44:03;;;;;;;12.07;11.20;;;;;;;16.78;46.02;92719.66;5073354;28;20233;-86
2022/05/02 07:46:41;;;;;;;15.73;14.20;;;;;;;16.95;45.04;92715.09;5070513;28;20244;-86
2022/05/02 07:49:07;;;;;;;10.97;10.27;;;;;;;16.33;46.26;92711.28;5070515;28;20209;-87
2022/05/02 07:51:37;;;;;;;11.10;10.47;;;;;;;15.82;48.09;92711.25;5069958;28;20226;-87
2022/05/02 07:54:07;;;;;;;12.83;11.93;;;;;;;15.53;47.64;92718.94;5072494;28;20176;-87
2022/05/02 07:56:35;;;;;;;12.80;12.00;;;;;;;15.81;48.22;92738.66;5071082;28;20544;-83
2022/05/02 07:59:04;;;;;;;12.73;11.67;;;;;;;16.07;48.21;92726.31;5073673;28;20190;-88
2022/05/02 08:01:29;;;;;;;31.03;19.73;;;;;;;16.71;46.27;92743.84;5070824;28;20243;-88
2022/05/02 08:03:55;;;;;;;14.70;13.57;;;;;;;16.61;46.90;92735.47;5089316;28;20177;-89
2022/05/02 08:06:26;;;;;;;10.77;10.07;;;;;;;16.91;44.50;92734.50;5050811;28;20252;-83
2022/05/02 08:09:03;;;;;;;11.53;10.73;;;;;;;16.90;44.46;92731.09;5048610;28;20216;-87
2022/05/02 08:11:56;;;;;;;11.73;11.03;;;;;;;16.74;44.72;92735.31;5055940;28;20226;-86
2022/05/02 08:14:59;;;;;;;12.17;11.27;;;;;;;16.82;45.66;92723.97;5067972;28;20622;-89
2022/05/02 08:17:42;;;;;;;12.00;11.20;;;;;;;17.06;44.98;92736.63;5032139;28;20240;-85
2022/05/02 08:20:35;;;;;;;11.93;11.23;;;;;;;17.15;44.75;92751.34;5061898;28;20200;-85
2022/05/02 08:29:55;;;;;;;11.50;10.70;;;;;;;16.40;47.59;92735.31;5054215;28;20409;-85
2022/05/02 08:32:47;;;;;;;12.20;11.10;;;;;;;16.74;47.15;92740.59;5055038;28;20289;-87
2022/05/02 08:35:16;;;;;;;12.63;11.53;;;;;;;16.55;46.99;92737.50;5076437;28;20204;-83
2022/05/02 08:37:41;;;;;;;14.40;13.13;;;;;;;16.19;48.25;92744.16;5071272;28;20296;-85
2022/05/02 08:40:25;;;;;;;13.60;11.27;;;;;;;16.59;45.68;92743.69;5070899;28;20186;-85
2022/05/02 08:43:42;;;;;;;11.77;11.00;;;;;;;16.73;43.55;92739.03;5054490;28;20252;-86
2022/05/02 08:46:26;;;;;;;11.87;11.10;;;;;;;16.54;43.97;92735.97;5050742;28;20309;-88
2022/05/02 08:49:32;;;;;;;13.40;12.40;;;;;;;17.06;43.36;92736.63;5062491;28;20235;-87
2022/05/02 08:52:02;;;;;;;12.83;11.73;;;;;;;16.85;42.21;92736.53;5057833;28;20226;-86
2022/05/02 08:55:08;;;;;;;12.17;11.27;;;;;;;16.24;46.00;92723.69;5014504;28;20206;-87
2022/05/02 08:58:02;;;;;;;11.10;10.30;;;;;;;16.84;43.93;92723.66;5068446;28;20244;-86
2022/05/02 09:00:49;;;;;;;11.30;10.40;;;;;;;17.39;42.35;92722.56;5066412;28;20202;-84
2022/05/02 09:03:39;;;;;;;12.43;11.37;;;;;;;17.29;43.34;92725.53;5073258;28;20307;-86
2022/05/02 09:06:33;;;;;;;12.33;11.33;;;;;;;16.88;43.21;92706.13;5051001;28;20225;-86
2022/05/02 09:09:31;;;;;;;10.90;10.20;;;;;;;17.94;41.20;92708.47;5035324;28;20234;-88
2022/05/02 09:12:39;;;;;;;10.33;9.73;;;;;;;17.82;40.63;92711.06;5045071;28;20225;-87
2022/05/02 09:15:32;;;;;;;12.43;11.43;;;;;;;18.03;40.20;92706.56;5024417;28;20205;-84
2022/05/02 09:18:28;;;;;;;12.37;11.43;;;;;;;17.78;40.84;92705.63;5039685;28;20238;-85
2022/05/02 09:20:57;;;;;;;11.03;10.23;;;;;;;17.72;38.81;92698.97;5049639;28;20254;-86
2022/05/02 09:23:32;;;;;;;10.27;9.57;;;;;;;17.67;38.26;92690.47;5067694;28;20194;-85
2022/05/02 09:26:08;;;;;;;11.03;10.33;;;;;;;17.30;40.26;92692.03;5067744;28;20229;-81
2022/05/02 09:29:07;;;;;;;11.07;10.37;;;;;;;17.24;40.31;92680.88;5067715;28;20205;-85
2022/05/02 09:31:54;;;;;;;10.40;9.70;;;;;;;17.38;39.73;92688.56;5068095;28;20230;-86
2022/05/02 09:34:41;;;;;;;12.40;11.43;;;;;;;17.68;38.75;92694.66;5061978;28;20176;-85
2022/05/02 09:37:14;;;;;;;10.07;9.43;;;;;;;17.77;38.94;92693.53;5069412;28;20288;-86
2022/05/02 09:39:42;;;;;;;10.93;10.03;;;;;;;17.65;40.42;92688.13;5069606;28;20235;-87
2022/05/02 09:42:43;;;;;;;11.37;10.27;;;;;;;17.52;38.57;92686.53;5072710;28;20224;-86
2022/05/02 09:51:48;;;;;;;9.77;9.17;;;;;;;17.12;38.81;92667.56;5053490;28;20252;-86
2022/05/02 09:54:14;;;;;;;10.23;9.63;;;;;;;17.16;40.34;92673.78;5050667;28;20289;-87
2022/05/02 09:56:46;;;;;;;11.80;10.80;;;;;;;17.18;39.55;92666.28;5059735;28;20273;-89
2022/05/02 09:59:24;;;;;;;10.07;9.53;;;;;;;17.49;36.29;92652.84;5066715;28;20640;-87
2022/05/02 10:02:05;;;;;;;12.53;9.13;;;;;;;17.52;36.10;92663.53;5066111;28;20229;-87
2022/05/02 10:04:59;;;;;;;14.43;13.13;;;;;;;17.86;34.80;92656.47;5073005;28;20190;-88
2022/05/02 10:07:25;;;;;;;9.73;9.20;;;;;;;17.87;34.50;92650.13;5066335;28;20264;-88
2022/05/02 10:10:05;;;;;;;10.03;9.37;;;;;;;18.14;35.49;92655.66;5063680;28;20216;-87
2022/05/02 10:12:40;;;;;;;9.57;8.97;;;;;;;18.22;35.03;92646.09;5074401;28;20245;-89
2022/05/02 10:15:17;;;;;;;10.80;10.17;;;;;;;18.07;36.73;92650.09;5065664;28;20873;-91
2022/05/02 10:17:42;;;;;;;10.23;9.63;;;;;;;18.00;37.81;92654.38;5072448;28;20233;-89
2022/05/02 10:20:15;;;;;;;9.83;9.27;;;;;;;18.01;38.39;92642.72;5067754;28;20264;-90
2022/05/02 10:23:19;;;;;;;11.13;10.43;;;;;;;18.21;36.36;92623.44;5073016;28;20237;-86
2022/05/02 10:25:59;;;;;;;10.53;9.73;;;;;;;17.75;38.63;92650.03;5058571;28;20252;-83
2022/05/02 10:28:58;;;;;;;10.77;10.07;;;;;;;16.82;39.94;92638.81;5082664;28;20195;-84
2022/05/02 10:31:33;;;;;;;11.63;10.73;;;;;;;17.56;39.50;92651.25;5072669;28;20297;-85
2022/05/02 10:34:02;;;;;;;20.67;16.97;;;;;;;17.90;37.25;92642.31;5075762;28;20197;-86
2022/05/02 10:36:35;;;;;;;12.20;10.63;;;;;;;17.77;36.18;92638.06;5064776;28;20226;-85
2022/05/02 10:39:15;;;;;;;11.17;10.47;;;;;;;17.95;36.50;92636.06;5048875;28;20718;-84
2022/05/02 10:42:03;;;;;;;10.90;10.30;;;;;;;18.10;36.03;92632.84;5049935;28;20790;-83
2022/05/02 10:44:57;;;;;;;21.27;19.37;;;;;;;18.29;36.19;92625.97;5049357;28;20403;-82
2022/05/02 10:47:27;;;;;;;11.30;10.57;;;;;;;18.47;35.64;92632.69;5047512;28;20297;-84
2022/05/02 10:50:35;;;;;;;11.47;10.83;;;;;;;18.19;36.77;92620.31;5043812;28;20219;-85
2022/05/02 10:53:34;;;;;;;9.63;8.83;;;;;;;18.26;38.13;92629.28;5073412;28;20281;-86
2022/05/02 10:56:35;;;;;;;9.53;8.90;;;;;;;18.67;33.89;92625.81;5054696;28;20241;-84
2022/05/02 10:59:03;;;;;;;10.97;10.30;;;;;;;18.33;34.12;92626.13;4977972;28;20215;-85
2022/05/02 11:02:07;;;;;;;9.60;9.10;;;;;;;18.60;33.92;92622.94;5055457;28;20233;-88
2022/05/02 11:04:54;;;;;;;10.27;9.73;;;;;;;18.18;34.36;92629.38;4974859;28;20202;-88
2022/05/02 11:07:28;;;;;;;10.67;10.07;;;;;;;17.89;36.74;92626.78;4990957;28;20296;-87
2022/05/02 11:10:05;;;;;;;11.10;10.40;;;;;;;18.25;36.73;92619.81;5046915;28;20213;-87
2022/05/02 11:12:41;;;;;;;10.30;9.70;;;;;;;18.47;34.88;92624.00;5056685;28;20229;-88
2022/05/02 11:15:14;;;;;;;10.90;10.13;;;;;;;18.75;33.99;92630.25;5062843;28;20248;-85
2022/05/02 11:17:59;;;;;;;10.40;9.70;;;;;;;18.96;33.32;92620.34;5063876;28;20253;-86
2022/05/02 11:20:51;;;;;;;10.43;9.77;;;;;;;19.12;33.77;92622.03;5070288;28;20192;-91
2022/05/02 11:23:29;;;;;;;10.17;9.60;;;;;;;18.55;34.16;92623.13;5071982;28;20217;-87
2022/05/02 11:26:37;;;;;;;9.60;9.10;;;;;;;18.50;34.10;92612.75;5065655;28;20229;-91
2022/05/02 11:29:48;;;;;;;10.77;10.07;;;;;;;18.29;33.98;92604.09;5055344;28;20217;-88
2022/05/02 11:32:27;;;;;;;11.17;10.40;;;;;;;17.16;36.97;92609.66;5047294;28;20260;-86
2022/05/02 11:35:12;;;;;;;10.43;9.73;;;;;;;17.44;35.42;92618.69;5056333;28;20193;-82
2022/05/02 11:37:41;;;;;;;9.50;9.10;;;;;;;17.37;35.11;92610.47;5062482;28;20729;-87
2022/05/02 11:40:09;;;;;;;9.70;9.20;;;;;;;17.22;35.36;92614.44;5071522;28;20192;-88
2022/05/02 11:42:37;;;;;;;8.73;8.33;;;;;;;17.03;37.42;92608.00;5066962;28;20241;-85
2022/05/02 11:45:10;;;;;;;9.23;8.73;;;;;;;16.90;36.57;92616.94;5089693;28;20861;-86
2022/05/02 11:48:03;;;;;;;9.17;8.77;;;;;;;16.73;38.11;92612.47;5072989;28;20248;-85
2022/05/02 11:50:37;;;;;;;8.17;7.77;;;;;;;16.56;39.08;92603.84;5056729;28;20209;-84
2022/05/02 11:53:09;;;;;;;10.03;9.30;;;;;;;16.34;39.33;92593.50;5057922;28;20227;-83
2022/05/02 11:55:35;;;;;;;9.47;8.97;;;;;;;15.79;40.72;92590.75;5070999;28;20193;-79
2022/05/02 11:58:08;;;;;;;10.93;10.23;;;;;;;15.51;42.73;92529.78;5070691;28;20223;-86
2022/05/02 12:00:36;;;;;;;10.70;10.10;;;;;;;16.21;43.08;92600.50;5069634;28;20263;-87
2022/05/02 12:03:18;;;;;;;10.43;9.63;;;;;;;16.44;40.09;92601.88;5037607;28;20245;-84
2022/05/02 12:05:57;;;;;;;9.93;9.43;;;;;;;16.45;39.52;92606.03;5037008;28;20184;-85
2022/05/02 12:08:32;;;;;;;9.47;8.90;;;;;;;16.48;37.94;92608.06;5051081;28;20198;-83
2022/05/02 12:11:04;;;;;;;9.67;9.17;;;;;;;16.14;37.54;92599.41;5050323;28;20225;-85
2022/05/02 12:13:38;;;;;;;9.93;9.23;;;;;;;16.08;39.10;92596.16;5040053;28;20261;-85